Time;durP1;ratioP1;P1;durP2;ratioP2;P2;SDS_P1;SDS_P2;PMS_P1;PMS_P2;Temp;Humidity;BMP_temperature;BMP_pressure;BME280_temperature;BME280_humidity;BME280_pressure;Samples;Min_cycle;Max_cycle;Signal;HPM_P1;HPM_P2
2022/01/27 00:01:33;;;;;;;8.97;6.83;;;;;;;-0.23;86.39;95777.94;5066927;28;20589;-69
2022/01/27 00:04:11;;;;;;;8.60;6.40;;;;;;;-0.18;86.10;95779.72;5091060;28;20293;-69
2022/01/27 00:06:39;;;;;;;7.17;5.77;;;;;;;-0.16;85.88;95783.09;5090408;28;20225;-70
2022/01/27 00:11:50;;;;;;;10.30;6.50;;;;;;;0.04;85.17;95785.13;5088666;28;20615;-71
2022/01/27 00:14:18;;;;;;;10.03;6.13;;;;;;;-0.10;85.21;95778.22;5085725;28;20209;-71
2022/01/27 00:16:54;;;;;;;8.40;6.27;;;;;;;-0.11;85.25;95776.53;5088307;28;20271;-70
2022/01/27 00:19:21;;;;;;;8.30;6.20;;;;;;;0.04;85.10;95770.97;5089277;28;20200;-71
2022/01/27 00:21:48;;;;;;;7.53;5.63;;;;;;;0.10;84.78;95776.09;5090037;28;20205;-68
2022/01/27 00:24:16;;;;;;;10.63;6.27;;;;;;;-0.01;84.59;95780.91;5088818;28;20270;-70
2022/01/27 00:26:43;;;;;;;10.57;7.30;;;;;;;0.03;84.92;95774.28;5089032;28;20235;-69
2022/01/27 00:29:11;;;;;;;9.40;6.37;;;;;;;0.00;85.06;95781.75;5089120;28;20201;-69
2022/01/27 00:31:38;;;;;;;10.83;5.80;;;;;;;-0.06;84.93;95774.97;5090605;28;20235;-68
2022/01/27 00:34:05;;;;;;;11.77;6.30;;;;;;;-0.16;85.39;95767.28;5090046;28;20250;-70
2022/01/27 00:36:32;;;;;;;8.93;5.87;;;;;;;-0.07;85.54;95773.28;5090007;28;20201;-69
2022/01/27 00:38:59;;;;;;;6.33;5.40;;;;;;;-0.04;84.80;95753.34;5089739;28;20799;-70
2022/01/27 00:41:26;;;;;;;7.63;6.03;;;;;;;0.05;84.54;95769.31;5089183;28;20289;-69
2022/01/27 00:43:53;;;;;;;7.50;5.63;;;;;;;0.08;84.68;95771.88;5088834;28;20890;-68
2022/01/27 00:46:21;;;;;;;8.43;5.67;;;;;;;0.08;84.80;95769.38;5090301;28;20209;-70
2022/01/27 00:48:49;;;;;;;6.70;5.03;;;;;;;-0.02;84.66;95769.22;5090220;28;20201;-69
2022/01/27 00:51:22;;;;;;;5.40;4.40;;;;;;;0.03;84.84;95771.78;5087353;28;20208;-69
2022/01/27 00:53:54;;;;;;;5.10;4.70;;;;;;;0.02;84.53;95779.25;5088160;28;20591;-69
2022/01/27 00:56:27;;;;;;;5.77;4.80;;;;;;;-0.05;84.71;95774.16;5089398;28;20201;-69
2022/01/27 00:59:05;;;;;;;7.83;4.43;;;;;;;-0.11;84.45;95773.19;5089475;28;20208;-69
2022/01/27 01:01:39;;;;;;;7.93;4.47;;;;;;;-0.09;85.48;95769.91;5089475;28;20205;-70
2022/01/27 01:04:08;;;;;;;4.30;3.90;;;;;;;-0.06;84.86;95774.97;5090159;28;21169;-70
2022/01/27 01:06:42;;;;;;;4.10;3.73;;;;;;;-0.16;84.69;95768.13;5089195;28;20197;-70
2022/01/27 01:15:01;;;;;;;4.53;3.50;;;;;;;-0.09;85.01;95747.44;5065368;28;20210;-71
2022/01/27 01:17:37;;;;;;;3.80;3.50;;;;;;;-0.16;85.72;95749.78;5065813;28;20206;-71
2022/01/27 01:20:23;;;;;;;4.10;3.57;;;;;;;-0.09;84.70;95752.44;5062293;28;20202;-70
2022/01/27 01:31:15;;;;;;;4.43;3.00;;;;;;;-0.08;85.09;95759.13;5045800;28;20276;-70
2022/01/27 01:33:44;;;;;;;4.50;3.63;;;;;;;-0.14;84.82;95765.66;5046057;28;20194;-72
2022/01/27 01:36:15;;;;;;;3.90;3.20;;;;;;;-0.20;85.12;95763.88;5046751;28;20198;-70
2022/01/27 01:38:44;;;;;;;3.63;3.27;;;;;;;-0.19;84.81;95755.56;5046425;28;20692;-70
2022/01/27 01:41:12;;;;;;;3.33;3.13;;;;;;;-0.03;84.79;95752.56;5045678;28;20202;-69
2022/01/27 01:43:40;;;;;;;3.43;3.10;;;;;;;-0.05;83.97;95746.69;5046514;28;20297;-69
2022/01/27 01:46:07;;;;;;;4.07;3.70;;;;;;;-0.04;83.77;95735.03;5045453;28;20207;-72
2022/01/27 01:48:34;;;;;;;4.07;3.37;;;;;;;-0.05;83.54;95749.19;5044949;28;20203;-71
2022/01/27 01:51:03;;;;;;;4.90;4.50;;;;;;;0.00;84.27;95737.59;5046192;28;20230;-70
2022/01/27 01:53:30;;;;;;;4.00;3.70;;;;;;;0.04;82.93;95737.63;5046244;28;20194;-70
2022/01/27 01:55:56;;;;;;;3.73;3.43;;;;;;;0.06;83.45;95731.00;5046592;28;20206;-70
2022/01/27 01:58:23;;;;;;;4.77;4.23;;;;;;;-0.02;83.43;95733.41;5045405;28;20203;-70
2022/01/27 02:00:51;;;;;;;4.40;3.70;;;;;;;-0.03;83.16;95739.22;5044798;28;20565;-70
2022/01/27 02:03:18;;;;;;;3.77;3.47;;;;;;;-0.28;83.81;95715.44;5042760;28;20198;-71
2022/01/27 02:05:50;;;;;;;4.07;3.67;;;;;;;-0.06;83.47;95727.50;5044502;28;20202;-71
2022/01/27 02:19:28;;;;;;;4.10;3.70;;;;;;;-0.06;83.70;95721.66;5045622;28;20217;-69
2022/01/27 02:21:58;;;;;;;3.30;3.00;;;;;;;-0.02;83.42;95725.91;5040788;28;21704;-69
2022/01/27 02:24:28;;;;;;;3.63;3.33;;;;;;;0.04;83.07;95722.66;5032099;28;20227;-69
2022/01/27 02:26:55;;;;;;;3.17;2.87;;;;;;;0.03;83.40;95715.97;5032489;28;20234;-69
2022/01/27 02:29:23;;;;;;;4.20;3.63;;;;;;;0.03;83.02;95715.97;5032014;28;20248;-69
2022/01/27 02:31:51;;;;;;;3.93;3.57;;;;;;;-0.14;83.97;95716.53;5033183;28;20292;-69
2022/01/27 02:34:18;;;;;;;3.23;2.93;;;;;;;-0.09;84.00;95721.59;5032224;28;20222;-69
2022/01/27 02:36:45;;;;;;;3.00;2.80;;;;;;;-0.01;83.77;95710.94;5032655;28;20298;-70
2022/01/27 02:39:14;;;;;;;3.33;3.07;;;;;;;-0.09;84.36;95716.63;5031744;28;20230;-70
2022/01/27 02:41:46;;;;;;;3.10;2.87;;;;;;;0.00;84.63;95709.28;5032374;28;20349;-69
2022/01/27 02:44:21;;;;;;;2.97;2.77;;;;;;;0.09;84.51;95706.09;5032532;28;20203;-70
2022/01/27 02:46:51;;;;;;;3.37;3.07;;;;;;;0.21;83.41;95707.13;5031850;28;20221;-69
2022/01/27 02:49:18;;;;;;;3.37;3.17;;;;;;;0.21;84.08;95716.28;5032073;28;20222;-69
2022/01/27 02:51:44;;;;;;;3.10;2.90;;;;;;;0.16;84.10;95715.38;5032369;28;20235;-70
2022/01/27 02:54:12;;;;;;;2.77;2.57;;;;;;;0.12;84.57;95713.63;5032424;28;20240;-69
2022/01/27 02:56:44;;;;;;;3.03;2.83;;;;;;;0.15;84.92;95716.19;5031418;28;21015;-70
2022/01/27 02:59:12;;;;;;;4.40;2.27;;;;;;;0.16;84.34;95708.72;5031500;28;20199;-69
2022/01/27 03:01:38;;;;;;;3.47;3.17;;;;;;;0.13;84.41;95722.81;5031541;28;20264;-70
2022/01/27 03:04:05;;;;;;;2.80;2.60;;;;;;;0.07;85.07;95715.22;5032016;28;20640;-69
2022/01/27 03:06:32;;;;;;;3.33;3.03;;;;;;;0.00;85.44;95716.78;5031615;28;20213;-69
2022/01/27 03:08:59;;;;;;;3.33;3.13;;;;;;;-0.04;85.61;95720.88;5032297;28;20226;-69
2022/01/27 03:11:39;;;;;;;3.43;3.20;;;;;;;0.03;85.54;95715.97;5031418;28;20293;-69
2022/01/27 03:14:07;;;;;;;3.00;2.67;;;;;;;0.15;85.19;95724.53;5031616;28;20296;-69
2022/01/27 03:16:34;;;;;;;3.27;2.97;;;;;;;0.07;86.00;95717.69;5031335;28;20590;-69
2022/01/27 03:19:01;;;;;;;3.17;2.50;;;;;;;0.09;85.66;95709.41;5031506;28;20713;-69
2022/01/27 03:21:28;;;;;;;3.03;2.83;;;;;;;0.14;85.29;95710.34;5031390;28;20199;-69
2022/01/27 03:23:56;;;;;;;2.73;2.53;;;;;;;0.09;85.26;95706.94;5031643;28;20388;-69
2022/01/27 03:26:24;;;;;;;3.27;3.00;;;;;;;0.16;85.42;95712.88;5031669;28;20245;-69
2022/01/27 03:28:52;;;;;;;3.57;3.27;;;;;;;0.09;85.66;95716.06;5031763;28;20289;-69
2022/01/27 03:31:19;;;;;;;3.80;3.40;;;;;;;0.15;85.69;95711.19;5031016;28;20243;-69
2022/01/27 03:33:46;;;;;;;3.00;2.80;;;;;;;0.12;85.55;95716.13;5030031;28;20606;-69
2022/01/27 03:36:14;;;;;;;3.60;3.30;;;;;;;0.23;84.96;95714.66;5031381;28;20207;-69
2022/01/27 03:38:41;;;;;;;4.53;4.00;;;;;;;0.25;84.47;95718.00;5030546;28;20220;-69
2022/01/27 03:41:09;;;;;;;4.40;3.37;;;;;;;-0.03;85.37;95722.56;5030510;28;20252;-70
2022/01/27 03:43:38;;;;;;;3.77;3.47;;;;;;;0.07;85.63;95716.06;5030744;28;20207;-69
2022/01/27 03:46:07;;;;;;;3.37;3.17;;;;;;;0.05;85.35;95716.84;5030891;28;20308;-70
2022/01/27 03:48:34;;;;;;;3.40;3.10;;;;;;;-0.01;85.08;95720.94;5031007;28;20253;-70
2022/01/27 03:51:00;;;;;;;2.97;2.57;;;;;;;-0.09;86.39;95717.44;5030356;28;20234;-70
2022/01/27 03:53:27;;;;;;;2.67;2.47;;;;;;;0.00;85.95;95721.78;5030343;28;20199;-69
2022/01/27 03:55:55;;;;;;;2.50;2.40;;;;;;;-0.02;85.48;95719.25;5030364;28;20693;-69
2022/01/27 03:58:22;;;;;;;3.10;2.90;;;;;;;-0.13;86.27;95715.72;5030676;28;20288;-69
2022/01/27 04:00:49;;;;;;;3.10;2.90;;;;;;;0.14;85.80;95727.00;5030722;28;20199;-69
2022/01/27 04:03:20;;;;;;;3.10;2.90;;;;;;;0.17;85.25;95724.56;5029578;28;20203;-69
2022/01/27 04:05:52;;;;;;;3.60;3.40;;;;;;;0.25;84.55;95731.34;5028633;28;20344;-69
2022/01/27 04:08:19;;;;;;;3.17;2.97;;;;;;;0.22;84.53;95733.81;5030207;28;20257;-70
2022/01/27 04:10:46;;;;;;;3.23;2.93;;;;;;;0.25;84.09;95738.00;5030183;28;20289;-68
2022/01/27 04:13:13;;;;;;;3.10;2.90;;;;;;;0.16;84.53;95720.38;5030308;28;20732;-69
2022/01/27 04:15:42;;;;;;;3.37;3.07;;;;;;;-0.03;85.60;95725.06;5030307;28;20881;-70
2022/01/27 04:18:10;;;;;;;3.33;3.03;;;;;;;-0.16;86.53;95730.63;5030263;28;20226;-69
2022/01/27 04:20:39;;;;;;;3.43;3.23;;;;;;;-0.16;86.33;95724.81;5029960;28;20214;-69
2022/01/27 04:23:07;;;;;;;3.50;3.30;;;;;;;-0.11;86.32;95735.72;5030203;28;20661;-70
2022/01/27 04:25:34;;;;;;;3.40;3.20;;;;;;;0.00;86.28;95731.78;5030005;28;20198;-69
2022/01/27 04:28:05;;;;;;;2.80;2.60;;;;;;;0.08;86.22;95729.38;5030773;28;20197;-70
2022/01/27 04:30:32;;;;;;;4.03;3.73;;;;;;;0.05;85.82;95726.84;5029838;28;21095;-70
2022/01/27 04:33:02;;;;;;;4.50;3.60;;;;;;;0.07;85.60;95728.53;5028822;28;20231;-70
2022/01/27 04:35:33;;;;;;;4.20;3.90;;;;;;;0.12;85.26;95731.13;5029509;28;20795;-70
2022/01/27 04:38:14;;;;;;;3.50;3.30;;;;;;;-0.10;86.25;95729.91;5029735;28;20212;-70
2022/01/27 04:40:48;;;;;;;6.60;4.17;;;;;;;-0.06;87.08;95724.16;5030176;28;20648;-70
2022/01/27 04:43:23;;;;;;;3.83;3.53;;;;;;;-0.05;87.09;95738.34;5029799;28;20231;-70
2022/01/27 04:45:58;;;;;;;5.00;4.60;;;;;;;0.00;86.57;95732.59;5028835;28;20597;-70
2022/01/27 04:48:26;;;;;;;4.37;4.03;;;;;;;-0.06;86.96;95734.16;5030219;28;20213;-70
2022/01/27 04:50:54;;;;;;;4.33;4.03;;;;;;;-0.11;86.75;95738.22;5029886;28;20203;-70
2022/01/27 04:53:28;;;;;;;4.80;4.40;;;;;;;-0.09;87.14;95746.59;5028996;28;20230;-69
2022/01/27 04:55:57;;;;;;;5.27;4.73;;;;;;;-0.08;86.78;95754.13;5029130;28;20203;-69
2022/01/27 04:58:30;;;;;;;7.63;5.33;;;;;;;-0.07;86.85;95749.97;5029601;28;20553;-69
2022/01/27 05:00:59;;;;;;;3.70;3.40;;;;;;;-0.16;87.14;95752.28;5029961;28;20325;-68
2022/01/27 05:03:37;;;;;;;5.63;4.00;;;;;;;-0.13;87.12;95752.34;5029945;28;20225;-69
2022/01/27 05:06:04;;;;;;;4.97;4.47;;;;;;;-0.11;87.46;95759.06;5029552;28;20213;-69
2022/01/27 05:08:33;;;;;;;6.47;5.17;;;;;;;-0.10;87.34;95753.25;5029516;28;20276;-68
2022/01/27 05:11:03;;;;;;;5.10;4.70;;;;;;;-0.29;87.94;95722.91;5028998;28;21327;-69
2022/01/27 05:13:37;;;;;;;4.47;4.17;;;;;;;-0.02;87.46;95764.22;5029884;28;20213;-69
2022/01/27 05:16:04;;;;;;;4.70;4.30;;;;;;;-0.19;88.04;95767.19;5029901;28;20299;-68
2022/01/27 05:18:31;;;;;;;4.40;4.10;;;;;;;-0.12;88.06;95767.34;5029615;28;20636;-69
2022/01/27 05:20:58;;;;;;;5.33;4.83;;;;;;;-0.04;87.56;95772.50;5028974;28;20572;-69
2022/01/27 05:23:25;;;;;;;5.17;4.67;;;;;;;0.00;87.49;95777.56;5029594;28;20304;-68
2022/01/27 05:25:53;;;;;;;5.13;4.73;;;;;;;0.04;87.77;95777.63;5029113;28;20203;-68
2022/01/27 05:28:19;;;;;;;5.40;4.90;;;;;;;-0.02;87.63;95779.22;5029414;28;20253;-69
2022/01/27 05:30:46;;;;;;;4.63;4.07;;;;;;;-0.01;87.76;95765.91;5028219;28;20206;-70
2022/01/27 05:33:13;;;;;;;4.97;4.57;;;;;;;-0.09;87.92;95777.41;5029430;28;20303;-68
2022/01/27 05:35:40;;;;;;;6.17;4.97;;;;;;;-0.18;88.57;95777.22;5028828;28;20632;-68
2022/01/27 05:38:09;;;;;;;5.23;4.83;;;;;;;-0.09;89.29;95781.56;5029077;28;20211;-69
2022/01/27 05:40:36;;;;;;;5.20;4.77;;;;;;;0.08;88.84;95784.38;5029727;28;20203;-69
2022/01/27 05:43:04;;;;;;;5.67;5.17;;;;;;;0.03;88.38;95785.94;5029478;28;20280;-69
2022/01/27 05:45:31;;;;;;;5.60;5.10;;;;;;;0.04;88.28;95777.63;5029221;28;20203;-68
2022/01/27 05:47:58;;;;;;;5.10;4.57;;;;;;;-0.07;88.77;95789.94;5029348;28;20203;-68
2022/01/27 05:50:25;;;;;;;5.93;5.30;;;;;;;-0.06;88.52;95792.47;5029305;28;20281;-69
2022/01/27 05:52:52;;;;;;;5.07;4.67;;;;;;;-0.04;89.08;95793.34;5028676;28;20231;-69
2022/01/27 05:55:19;;;;;;;5.00;4.60;;;;;;;0.09;88.07;95786.03;5028290;28;20211;-69
2022/01/27 05:57:45;;;;;;;5.83;5.03;;;;;;;0.12;88.08;95791.09;5030919;28;21519;-69
2022/01/27 06:00:14;;;;;;;4.90;4.50;;;;;;;0.09;87.81;95791.03;5032802;28;20269;-70
2022/01/27 06:02:41;;;;;;;5.40;4.90;;;;;;;0.12;87.60;95786.94;5033056;28;20199;-69
2022/01/27 06:05:09;;;;;;;5.53;5.13;;;;;;;0.03;88.06;95790.94;5032149;28;20203;-70
2022/01/27 06:07:37;;;;;;;5.67;5.13;;;;;;;-0.05;89.04;95793.31;5032953;28;20199;-70
2022/01/27 06:10:05;;;;;;;5.00;4.57;;;;;;;0.03;89.21;95800.94;5032593;28;20721;-69
2022/01/27 06:12:31;;;;;;;5.33;4.93;;;;;;;0.05;88.28;95799.28;5032505;28;20242;-69
2022/01/27 06:14:58;;;;;;;5.87;5.10;;;;;;;0.10;88.96;95792.72;5031755;28;20199;-69
2022/01/27 06:17:28;;;;;;;6.13;5.73;;;;;;;0.15;88.31;95806.16;5032896;28;20682;-69
2022/01/27 06:19:55;;;;;;;5.63;5.23;;;;;;;0.03;88.35;95801.75;5032488;28;20294;-70
2022/01/27 06:22:22;;;;;;;5.70;5.30;;;;;;;-0.16;89.09;95800.59;5032771;28;20198;-70
2022/01/27 06:24:50;;;;;;;5.50;4.97;;;;;;;-0.08;89.67;95809.09;5032065;28;20223;-70
2022/01/27 06:27:17;;;;;;;5.13;4.73;;;;;;;-0.08;89.89;95809.09;5030290;28;20257;-70
2022/01/27 06:29:43;;;;;;;6.17;5.53;;;;;;;-0.09;89.47;95817.38;5030738;28;20257;-70
2022/01/27 06:32:11;;;;;;;5.03;4.63;;;;;;;0.04;89.27;95817.59;5032558;28;20268;-70
2022/01/27 06:34:39;;;;;;;5.77;5.37;;;;;;;0.14;88.63;95806.97;5031426;28;20199;-70
2022/01/27 06:37:06;;;;;;;6.10;5.60;;;;;;;0.21;88.25;95816.28;5032455;28;20222;-68
2022/01/27 06:39:35;;;;;;;6.40;5.80;;;;;;;0.03;88.25;95816.75;5032385;28;20261;-69
2022/01/27 06:42:05;;;;;;;5.53;5.03;;;;;;;0.05;89.18;95816.78;5031142;28;20223;-69
2022/01/27 06:44:31;;;;;;;6.17;5.63;;;;;;;0.12;88.31;95816.94;5031889;28;20199;-69
2022/01/27 06:46:58;;;;;;;6.30;5.40;;;;;;;0.17;88.28;95820.38;5032006;28;20292;-69
2022/01/27 06:49:25;;;;;;;6.87;5.70;;;;;;;0.15;88.25;95818.66;5031571;28;20203;-69
2022/01/27 06:51:53;;;;;;;22.83;5.97;;;;;;;0.29;88.25;95817.25;5031468;28;20313;-68
2022/01/27 06:54:20;;;;;;;7.50;6.13;;;;;;;0.23;88.10;95824.66;5031413;28;20207;-68
2022/01/27 06:56:46;;;;;;;5.70;5.30;;;;;;;0.28;88.22;95811.41;5031566;28;20226;-68
2022/01/27 06:59:15;;;;;;;6.27;5.70;;;;;;;0.29;88.20;95810.59;5031695;28;20203;-69
2022/01/27 07:01:42;;;;;;;7.63;5.23;;;;;;;0.42;87.25;95813.31;5031924;28;20245;-69
2022/01/27 07:04:09;;;;;;;6.73;5.80;;;;;;;0.33;87.64;95811.47;5031526;28;20230;-69
2022/01/27 07:06:36;;;;;;;5.83;5.30;;;;;;;0.31;88.08;95813.94;5031515;28;21845;-69
2022/01/27 07:09:05;;;;;;;6.73;6.17;;;;;;;0.34;87.29;95808.16;5029609;28;20252;-68
2022/01/27 07:11:31;;;;;;;6.50;5.80;;;;;;;0.47;86.92;95800.06;5030737;28;20219;-69
2022/01/27 07:13:58;;;;;;;6.23;5.63;;;;;;;0.54;87.14;95814.34;5031481;28;20340;-68
2022/01/27 07:16:25;;;;;;;7.03;6.23;;;;;;;0.61;86.82;95818.66;5031675;28;20211;-70
2022/01/27 07:18:52;;;;;;;7.30;6.70;;;;;;;0.51;85.91;95821.78;5031182;28;20900;-70
2022/01/27 07:21:19;;;;;;;6.90;6.10;;;;;;;0.42;86.99;95829.16;5031493;28;20209;-70
2022/01/27 07:23:46;;;;;;;5.03;4.63;;;;;;;0.43;86.69;95828.34;5030328;28;20306;-69
2022/01/27 07:26:15;;;;;;;6.70;5.27;;;;;;;0.39;86.84;95830.75;5030924;28;20758;-71
2022/01/27 07:28:43;;;;;;;8.93;6.07;;;;;;;0.35;86.86;95829.84;5031191;28;20748;-70
2022/01/27 07:31:09;;;;;;;6.23;5.73;;;;;;;0.54;87.29;95828.50;5031051;28;20207;-69
2022/01/27 07:33:36;;;;;;;6.23;5.63;;;;;;;0.64;86.47;95830.34;5030792;28;20285;-69
2022/01/27 07:36:03;;;;;;;7.23;6.47;;;;;;;0.82;86.29;95832.31;5030574;28;20264;-70
2022/01/27 07:38:29;;;;;;;6.13;5.60;;;;;;;0.87;85.16;95833.22;5030776;28;20260;-69
2022/01/27 07:40:56;;;;;;;7.13;6.07;;;;;;;0.99;85.57;95825.94;5030710;28;20195;-70
2022/01/27 07:43:24;;;;;;;7.30;6.33;;;;;;;0.92;85.67;95839.16;5030784;28;20207;-70
2022/01/27 07:45:51;;;;;;;6.33;5.67;;;;;;;0.94;85.10;95840.03;5030481;28;20207;-69
2022/01/27 07:48:18;;;;;;;8.23;6.63;;;;;;;0.83;85.84;95839.00;5031130;28;20199;-69
2022/01/27 07:50:45;;;;;;;7.87;6.13;;;;;;;0.65;86.41;95837.03;5031035;28;20199;-72
2022/01/27 07:53:12;;;;;;;7.00;6.50;;;;;;;0.82;86.90;95847.31;5030995;28;21202;-69
2022/01/27 07:55:39;;;;;;;12.70;7.90;;;;;;;0.75;86.50;95840.53;5030607;28;20207;-69
2022/01/27 07:58:06;;;;;;;16.77;7.47;;;;;;;0.74;86.93;95844.72;5030464;28;20298;-71
2022/01/27 08:00:34;;;;;;;7.70;7.10;;;;;;;0.95;86.45;95831.72;5031080;28;20254;-70
2022/01/27 08:03:01;;;;;;;8.27;7.23;;;;;;;0.96;86.15;95833.38;5030434;28;20199;-70
2022/01/27 08:05:28;;;;;;;9.87;7.07;;;;;;;1.11;85.99;95840.28;5029388;28;20211;-70
2022/01/27 08:07:55;;;;;;;9.47;8.13;;;;;;;1.00;85.47;95837.59;5030362;28;20203;-71
2022/01/27 08:10:22;;;;;;;8.97;7.77;;;;;;;0.97;86.81;95847.59;5030182;28;20296;-71
2022/01/27 08:12:50;;;;;;;9.30;8.17;;;;;;;1.15;85.77;95842.84;5030780;28;20283;-70
2022/01/27 08:15:19;;;;;;;10.77;7.97;;;;;;;1.01;86.40;95839.28;5030039;28;20203;-70
2022/01/27 08:17:47;;;;;;;10.43;8.10;;;;;;;1.02;85.44;95843.47;5029658;28;20345;-70
2022/01/27 08:20:14;;;;;;;9.67;7.63;;;;;;;1.04;85.36;95839.34;5029855;28;20575;-70
2022/01/27 08:22:43;;;;;;;11.07;7.50;;;;;;;1.01;86.13;95844.28;5030231;28;20268;-70
2022/01/27 08:25:11;;;;;;;8.87;7.97;;;;;;;0.99;85.54;95840.94;5030069;28;20222;-69
2022/01/27 08:27:42;;;;;;;8.50;7.70;;;;;;;1.03;85.62;95845.16;5030109;28;20712;-69
2022/01/27 08:30:11;;;;;;;10.63;8.30;;;;;;;0.96;86.64;95848.41;5030020;28;20207;-68
2022/01/27 08:32:47;;;;;;;10.80;9.07;;;;;;;1.17;85.11;95850.41;5029508;28;20963;-69
2022/01/27 08:35:17;;;;;;;12.07;8.47;;;;;;;1.19;84.91;95849.59;5030357;28;20234;-69
2022/01/27 08:37:44;;;;;;;13.27;9.93;;;;;;;1.25;84.24;95834.63;5030604;28;20202;-69
2022/01/27 08:40:14;;;;;;;34.90;19.53;;;;;;;1.64;86.31;95851.06;5030580;28;20215;-69
2022/01/27 08:42:41;;;;;;;18.77;12.57;;;;;;;1.70;83.15;95854.50;5028084;28;20673;-69
2022/01/27 08:45:10;;;;;;;16.23;9.97;;;;;;;1.73;83.14;95858.72;5029019;28;20886;-69
2022/01/27 08:47:37;;;;;;;17.67;10.80;;;;;;;1.63;83.99;95856.88;5029898;28;20659;-69
2022/01/27 08:50:05;;;;;;;19.43;9.57;;;;;;;1.45;83.43;95852.47;5029719;28;20199;-69
2022/01/27 08:52:33;;;;;;;17.60;10.70;;;;;;;1.21;85.01;95857.97;5029229;28;20322;-69
2022/01/27 08:55:00;;;;;;;16.20;9.87;;;;;;;1.19;85.66;95864.63;5029706;28;20211;-69
2022/01/27 08:57:27;;;;;;;14.03;9.10;;;;;;;1.09;85.59;95857.78;5029443;28;20272;-69
2022/01/27 08:59:54;;;;;;;11.33;8.63;;;;;;;1.17;84.99;95861.25;5029710;28;20221;-69
2022/01/27 09:02:20;;;;;;;10.03;8.47;;;;;;;1.21;85.12;95860.47;5029309;28;20265;-69
2022/01/27 09:04:48;;;;;;;11.13;8.50;;;;;;;1.07;85.23;95864.41;5029462;28;20290;-69
2022/01/27 09:07:15;;;;;;;14.10;8.37;;;;;;;0.97;86.30;95863.44;5029451;28;20199;-69
2022/01/27 09:09:44;;;;;;;10.13;9.07;;;;;;;1.00;85.33;95853.47;5029793;28;20191;-69
2022/01/27 09:12:12;;;;;;;15.87;9.97;;;;;;;1.24;85.64;95868.00;5028778;28;20241;-69
2022/01/27 09:14:41;;;;;;;10.73;7.73;;;;;;;1.36;84.21;95860.69;5028724;28;20231;-69
2022/01/27 09:17:09;;;;;;;13.93;8.53;;;;;;;1.44;83.35;95857.47;5029001;28;20614;-70
2022/01/27 09:19:38;;;;;;;21.77;10.77;;;;;;;1.72;83.20;95859.53;5029849;28;20206;-71
2022/01/27 09:22:11;;;;;;;16.87;9.80;;;;;;;1.85;81.84;95858.84;5029329;28;20210;-69
2022/01/27 09:24:41;;;;;;;11.20;8.67;;;;;;;1.82;82.24;95843.78;5028811;28;20218;-69
2022/01/27 09:27:09;;;;;;;8.70;7.87;;;;;;;1.62;82.25;95855.22;5029565;28;20223;-69
2022/01/27 09:29:36;;;;;;;10.70;8.47;;;;;;;1.67;81.92;95851.09;5028868;28;20737;-69
2022/01/27 09:32:05;;;;;;;12.50;8.93;;;;;;;1.79;81.98;95851.25;5029749;28;20203;-69
2022/01/27 09:34:32;;;;;;;13.23;9.00;;;;;;;1.89;81.32;95849.72;5033364;28;20727;-69
2022/01/27 09:37:02;;;;;;;9.03;7.93;;;;;;;1.83;81.58;95845.47;5033159;28;20207;-69
2022/01/27 09:39:29;;;;;;;13.63;8.77;;;;;;;1.83;81.70;95840.44;5033492;28;20587;-69
2022/01/27 09:41:58;;;;;;;11.43;8.53;;;;;;;1.89;82.00;95845.53;5033402;28;20469;-69
2022/01/27 09:44:29;;;;;;;10.07;9.07;;;;;;;1.75;80.56;95806.91;5033118;28;20261;-68
2022/01/27 09:46:58;;;;;;;11.83;8.63;;;;;;;1.85;79.87;95823.75;5032342;28;21030;-69
2022/01/27 09:49:33;;;;;;;39.13;19.57;;;;;;;2.20;80.37;95830.84;5032934;28;20207;-69
2022/01/27 09:52:01;;;;;;;17.90;11.70;;;;;;;2.16;78.61;95834.16;5033826;28;20269;-71
2022/01/27 09:54:28;;;;;;;12.57;8.53;;;;;;;2.07;79.45;95829.03;5033527;28;20234;-70
2022/01/27 09:56:56;;;;;;;11.30;9.07;;;;;;;2.01;79.79;95835.63;5033038;28;20191;-70
2022/01/27 09:59:24;;;;;;;12.00;9.00;;;;;;;1.83;79.95;95825.41;5032576;28;20207;-70
2022/01/27 10:01:58;;;;;;;12.73;8.73;;;;;;;1.91;80.09;95828.00;5033104;28;20556;-70
2022/01/27 10:04:41;;;;;;;12.07;8.53;;;;;;;1.83;79.02;95830.41;5032410;28;21427;-69
2022/01/27 10:07:08;;;;;;;13.30;10.07;;;;;;;1.97;79.97;95838.97;5033312;28;20268;-70
2022/01/27 10:09:35;;;;;;;14.33;10.00;;;;;;;1.96;78.58;95832.25;5031721;28;20210;-69
2022/01/27 10:12:04;;;;;;;12.80;10.07;;;;;;;1.98;79.07;95832.28;5032845;28;20617;-69
2022/01/27 10:14:36;;;;;;;13.40;9.60;;;;;;;2.00;78.57;95831.44;5030903;28;20235;-70
2022/01/27 10:17:10;;;;;;;12.43;9.47;;;;;;;1.97;78.42;95833.94;5030253;28;20203;-69
2022/01/27 10:19:37;;;;;;;12.40;8.57;;;;;;;2.13;77.75;95829.09;5031637;28;20203;-71
2022/01/27 10:22:07;;;;;;;9.87;8.70;;;;;;;2.09;76.93;95819.84;5033880;28;20591;-70
2022/01/27 10:24:35;;;;;;;12.50;9.30;;;;;;;2.29;76.50;95813.38;5034077;28;21275;-70
2022/01/27 10:27:29;;;;;;;9.30;8.07;;;;;;;2.59;75.58;95826.22;5033660;28;20732;-70
2022/01/27 10:32:41;;;;;;;11.87;8.30;;;;;;;3.53;71.31;95805.16;5020621;28;20210;-70
2022/01/27 10:35:09;;;;;;;9.60;8.23;;;;;;;3.60;70.20;95816.91;5034002;28;20260;-70
2022/01/27 10:37:56;;;;;;;13.07;8.90;;;;;;;3.87;69.86;95807.00;5036332;28;20199;-71
2022/01/27 10:40:26;;;;;;;9.67;7.83;;;;;;;4.25;67.99;95804.59;5038306;28;20608;-71
2022/01/27 10:43:06;;;;;;;7.80;7.00;;;;;;;4.12;67.66;95812.13;5038587;28;20203;-70
2022/01/27 10:45:33;;;;;;;9.17;7.33;;;;;;;3.91;69.08;95820.44;5039391;28;20214;-71
2022/01/27 10:48:17;;;;;;;8.67;7.77;;;;;;;4.04;68.17;95812.91;5038580;28;20211;-71
2022/01/27 10:50:51;;;;;;;9.27;8.23;;;;;;;4.01;68.21;95800.34;5039128;28;20198;-70
2022/01/27 10:53:19;;;;;;;12.17;8.30;;;;;;;3.93;68.32;95812.06;5039349;28;20238;-69
2022/01/27 10:56:01;;;;;;;7.63;6.83;;;;;;;3.67;68.86;95804.41;5036908;28;20623;-70
2022/01/27 10:58:29;;;;;;;9.87;7.77;;;;;;;3.65;69.43;95801.03;5032119;28;20581;-70
2022/01/27 11:01:00;;;;;;;7.83;6.63;;;;;;;3.85;68.77;95798.59;5031060;28;20815;-70
2022/01/27 11:03:28;;;;;;;10.53;7.80;;;;;;;4.04;66.96;95785.25;5014503;28;20867;-71
2022/01/27 11:05:59;;;;;;;7.03;6.33;;;;;;;4.12;66.50;95794.50;5044533;28;20299;-71
2022/01/27 11:08:26;;;;;;;6.30;5.70;;;;;;;4.40;66.16;95788.72;5048650;28;20278;-70
2022/01/27 11:10:53;;;;;;;7.40;5.47;;;;;;;4.50;64.09;95789.53;5046978;28;20233;-70
2022/01/27 11:13:23;;;;;;;7.80;5.97;;;;;;;4.91;64.14;95766.94;5046983;28;23253;-71
2022/01/27 11:15:54;;;;;;;6.20;5.67;;;;;;;5.36;62.97;95773.59;5028652;28;20196;-71
2022/01/27 11:18:23;;;;;;;5.67;5.07;;;;;;;5.52;61.60;95767.66;5027980;28;20196;-70
2022/01/27 11:20:58;;;;;;;5.35;4.95;;;;;;;5.41;60.82;95760.13;5028019;28;20207;-69
2022/01/27 11:26:19;;;;;;;5.17;4.77;;;;;;;5.25;61.46;95768.53;5019490;28;20223;-70
2022/01/27 11:28:48;;;;;;;5.13;4.63;;;;;;;5.18;60.67;95766.91;5029633;28;20195;-70
2022/01/27 11:31:30;;;;;;;5.18;4.78;;;;;;;5.02;60.97;95770.25;5030454;28;20732;-69
2022/01/27 11:34:02;;;;;;;5.28;4.78;;;;;;;4.91;61.27;95761.88;5031312;28;20227;-70
2022/01/27 11:36:30;;;;;;;6.07;5.47;;;;;;;4.66;61.64;95759.38;5031171;28;20230;-70
2022/01/27 11:38:59;;;;;;;5.13;4.73;;;;;;;4.51;62.61;95756.84;5031995;28;20200;-70
2022/01/27 11:41:44;;;;;;;7.40;5.00;;;;;;;4.38;62.59;95763.53;5031194;28;20257;-70
2022/01/27 11:44:22;;;;;;;5.53;4.77;;;;;;;4.53;63.20;95759.34;5031696;28;20679;-70
2022/01/27 11:47:20;;;;;;;5.57;5.07;;;;;;;4.60;63.00;95754.34;5031544;28;20285;-70
2022/01/27 11:49:53;;;;;;;8.53;5.30;;;;;;;4.49;62.83;95756.00;5031747;28;20203;-70
2022/01/27 11:52:23;;;;;;;5.07;4.67;;;;;;;4.25;63.72;95750.91;5031310;28;20234;-71
2022/01/27 11:54:51;;;;;;;5.60;5.10;;;;;;;4.33;63.46;95752.63;5031027;28;20289;-71
2022/01/27 11:57:43;;;;;;;8.15;5.07;;;;;;;4.54;61.79;95753.47;5031369;28;20673;-69
2022/01/27 12:00:15;;;;;;;6.40;5.40;;;;;;;4.53;61.64;95752.63;5039849;28;20195;-69
2022/01/27 12:03:12;;;;;;;4.93;4.17;;;;;;;4.37;61.13;95754.31;5029147;28;20196;-70
2022/01/27 12:05:41;;;;;;;74.13;26.17;;;;;;;4.59;61.87;95750.13;5043036;28;20268;-74
2022/01/27 12:08:23;;;;;;;10.10;6.90;;;;;;;4.85;60.42;95757.69;5049376;28;20199;-71
2022/01/27 12:10:53;;;;;;;4.40;4.00;;;;;;;4.97;59.94;95756.81;5049175;28;20544;-72
2022/01/27 12:14:00;;;;;;;4.80;4.37;;;;;;;4.59;61.44;95750.13;5048870;28;20198;-69
2022/01/27 12:16:40;;;;;;;4.95;4.55;;;;;;;4.37;61.86;95748.44;5046662;28;20587;-69
2022/01/27 12:19:09;;;;;;;5.27;4.77;;;;;;;4.48;61.53;95741.72;5028930;28;20195;-69
2022/01/27 12:21:39;;;;;;;5.57;5.07;;;;;;;4.33;61.78;95741.72;5029210;28;20196;-70